Impacts TAF Board
For situational awareness. Not to be used for flight planning purposes.
IDs:

KTLH - Tallahassee Intl, FL, US

Issued at 1120 UTC 15 Oct 2018
Updated at 1455 UTC 15 Oct 2018
Potential Impact None Slight Moderate High
Time<<16/03Z 16/04Z 16/05Z 16/06Z 16/07Z 16/08Z 16/09Z 16/10Z 16/11Z 16/12Z 16/13Z 16/14Z 16/15Z>>
Type PRVL PRVL PRVL PRVL PRVL PRVL PRVL PRVL PRVL
VIS >6 >6 >6 >6 >6 >6 2 2 2
CIG -- -- -- -- -- -- -- -- --
Cover SCT SCT SCT SCT SCT SCT SCT SCT SCT
FltCat VFR VFR VFR VFR VFR VFR IFR IFR IFR
WX -- -- -- -- -- -- BR BR BR
WDir 160 160 160 160 160 160 VRB VRB VRB
WSpd 6 6 6 6 6 6 0 0 0
WGst -- -- -- -- -- -- -- -- --
Raw TAF
KTLH 151120Z 1512/1612 VRB04KT P6SM SCT250
  FM151500 16006KT P6SM SCT050
  FM160900 00000KT 2SM BR SCT003


METAR Board
Radar Display
Forecast Discussion
For situational awareness. Not to be used for flight planning purposes.